Melita — UBCP6 — position and weather

sailwx.info

Track history (hours):
 
Tides and Currents Weather Stations Pressure Air Temp Water Temp Dewpoint Dewpoint Depression Visibility Wind Speed Wind Dir Waves Ship Positions

Melita

Last reported at 2018-Jan-22 06:03 UTC. Time now 2018-Jan-22 12:32 UTC.
Position N 45°10' E 036°34'.

Length 110 m; draft 3.7 m.

Type: Cargo ship. MMSI: 273395390.

Date/timePositionNaut miles runAvg speedWind from/ knotsBaromVisibWave heightAir tempDewpointWater temp
2018-Jan-22 06:03N 45°10' E 036°34'0 0.0
2018-Jan-22 05:54N 45°10' E 036°34'0 0.0
2018-Jan-22 05:30N 45°10' E 036°34'0 0.0
2018-Jan-22 04:54N 45°10' E 036°34'0 0.2
2018-Jan-22 04:29N 45°10' E 036°34'1 0.5
2018-Jan-22 02:57N 45°10' E 036°33'0 0.0
2018-Jan-22 01:18N 45°10' E 036°33'0 0.0
2018-Jan-22 00:31N 45°10' E 036°33'0 0.0
2018-Jan-22 00:29N 45°10' E 036°33'0 0.0
2018-Jan-21 23:59N 45°10' E 036°33'6 0.2
2018-Jan-20 10:20N 45°14' E 036°27'2 5.9
2018-Jan-20 10:00N 45°16' E 036°28'3 5.0
2018-Jan-20 09:30N 45°18' E 036°30'3 6.0
2018-Jan-20 09:00N 45°20' E 036°34'3 5.9
2018-Jan-20 08:30N 45°21' E 036°38'3 5.8
2018-Jan-20 08:00N 45°23' E 036°40'2 4.7
2018-Jan-20 07:30N 45°25' E 036°41'2 3.3
2018-Jan-20 07:00N 45°27' E 036°40'1 1.9
2018-Jan-20 06:30N 45°27' E 036°39'0 0.0
2018-Jan-20 05:59N 45°27' E 036°39'0 0.1
2018-Jan-20 05:29N 45°27' E 036°39'0 0.0
2018-Jan-20 04:53N 45°27' E 036°39'0 0.0
2018-Jan-20 04:29N 45°27' E 036°39'0 0.0
2018-Jan-20 03:59N 45°27' E 036°39'0 0.1
2018-Jan-20 03:29N 45°27' E 036°39'0 0.0
2018-Jan-20 02:59N 45°27' E 036°39'0 0.0
2018-Jan-20 02:29N 45°27' E 036°39'0 0.0
2018-Jan-20 01:59N 45°27' E 036°39'0 0.0
2018-Jan-20 01:29N 45°27' E 036°39'0 0.1
2018-Jan-20 00:59N 45°27' E 036°39'0 0.0
2018-Jan-20 00:29N 45°27' E 036°39'0 0.1
2018-Jan-19 23:59N 45°27' E 036°39'0 0.1
2018-Jan-19 23:29N 45°27' E 036°39'0 0.0
2018-Jan-19 22:59N 45°27' E 036°39'0 0.0
2018-Jan-19 22:29N 45°27' E 036°39'0 0.0
2018-Jan-19 21:53N 45°27' E 036°39'0 0.1
2018-Jan-19 21:29N 45°27' E 036°39'0 0.0
2018-Jan-19 20:59N 45°27' E 036°39'0 0.0
2018-Jan-19 20:29N 45°27' E 036°39'0 0.0
2018-Jan-19 19:59N 45°27' E 036°39'0 0.0
2018-Jan-19 19:29N 45°27' E 036°39'0 0.0
2018-Jan-19 18:59N 45°27' E 036°39'0 0.0
2018-Jan-19 18:29N 45°27' E 036°39'0 0.0
2018-Jan-19 17:53N 45°27' E 036°39'0 0.0
2018-Jan-19 17:29N 45°27' E 036°39'0 0.0
2018-Jan-19 16:59N 45°27' E 036°39'0 0.0
2018-Jan-19 16:29N 45°27' E 036°39'0 0.0
2018-Jan-19 15:59N 45°27' E 036°39'0 0.0
2018-Jan-19 15:29N 45°27' E 036°39'0 0.0
2018-Jan-19 14:59N 45°27' E 036°39'0 0.0
2018-Jan-19 14:29N 45°27' E 036°39'0 0.0
2018-Jan-19 13:59N 45°27' E 036°39'0 0.1
2018-Jan-19 13:29N 45°27' E 036°39'0 0.0
2018-Jan-19 12:59N 45°27' E 036°39'0 0.0
2018-Jan-19 12:29N 45°27' E 036°39'0 0.0
2018-Jan-19 11:59N 45°27' E 036°39'0 0.1
2018-Jan-19 11:29N 45°27' E 036°39'0 0.0
2018-Jan-19 10:59N 45°27' E 036°39'0 0.0
2018-Jan-19 10:29N 45°27' E 036°39'0 0.0
2018-Jan-19 09:59N 45°27' E 036°39'0 0.0
2018-Jan-19 09:25N 45°27' E 036°39'0 0.0
2018-Jan-19 08:58N 45°27' E 036°39'0 0.0
2018-Jan-19 08:28N 45°27' E 036°39'0 0.0
2018-Jan-19 07:58N 45°27' E 036°39'0 0.0
2018-Jan-19 07:28N 45°27' E 036°39'0 0.0
2018-Jan-19 06:58N 45°27' E 036°39'0 0.0
2018-Jan-19 06:28N 45°27' E 036°39'0 0.0
2018-Jan-19 05:58N 45°27' E 036°39'0 0.0
2018-Jan-19 05:25N 45°27' E 036°39'0 0.0
2018-Jan-19 04:58N 45°27' E 036°39'0 0.0
2018-Jan-19 04:28N 45°27' E 036°39'0 0.0
2018-Jan-19 03:58N 45°27' E 036°39'0 0.0
2018-Jan-19 03:28N 45°27' E 036°39'0 0.0
2018-Jan-19 02:58N 45°27' E 036°39'0 0.0
2018-Jan-19 02:25N 45°27' E 036°39'0 0.0
2018-Jan-19 01:58N 45°27' E 036°39'0 0.0
2018-Jan-19 01:28N 45°27' E 036°39'0 0.0
2018-Jan-19 00:58N 45°27' E 036°39'0 0.0
2018-Jan-19 00:25N 45°27' E 036°39'0 0.0
2018-Jan-18 23:58N 45°27' E 036°39'0 0.0
2018-Jan-18 23:28N 45°27' E 036°39'0 0.0
2018-Jan-18 22:58N 45°27' E 036°39'0 0.0
2018-Jan-18 22:28N 45°27' E 036°39'0 0.0
2018-Jan-18 21:58N 45°27' E 036°39'0 0.0
2018-Jan-18 21:28N 45°27' E 036°39'0 0.0
2018-Jan-18 20:58N 45°27' E 036°39'0 0.0
2018-Jan-18 20:28N 45°27' E 036°39'0 0.0
2018-Jan-18 19:52N 45°27' E 036°39'0 0.0
2018-Jan-18 19:28N 45°27' E 036°39'0 0.0
2018-Jan-18 18:58N 45°27' E 036°39'0 0.0
2018-Jan-18 18:28N 45°27' E 036°39'0 0.0
2018-Jan-18 17:52N 45°27' E 036°39'0 0.0
2018-Jan-18 17:25N 45°27' E 036°39'0 0.0
2018-Jan-18 16:58N 45°27' E 036°39'0 0.0
2018-Jan-18 16:28N 45°27' E 036°39'0 0.0
2018-Jan-18 15:58N 45°27' E 036°39'0 0.0
2018-Jan-18 15:28N 45°27' E 036°39'0 0.0
2018-Jan-18 14:55N 45°27' E 036°39'0 0.0
2018-Jan-18 14:25N 45°27' E 036°39'0 0.0
2018-Jan-18 13:58N 45°27' E 036°39'0 0.0
2018-Jan-18 13:30N 45°27' E 036°39'0 0.0
2018-Jan-18 12:59N 45°27' E 036°39'0 0.0
2018-Jan-18 12:29N 45°27' E 036°39'0 0.0
2018-Jan-18 11:59N 45°27' E 036°39'0 0.0
2018-Jan-18 11:29N 45°27' E 036°39'0 0.0
2018-Jan-18 11:00N 45°27' E 036°39'0 0.0
2018-Jan-18 10:29N 45°27' E 036°39'0 0.0
2018-Jan-18 09:59N 45°27' E 036°39'0 0.0
2018-Jan-18 09:29N 45°27' E 036°39'0 0.0
2018-Jan-18 08:59N 45°27' E 036°39'0 0.0
2018-Jan-18 08:29N 45°27' E 036°39'0 0.0
2018-Jan-18 07:59N 45°27' E 036°39'0 0.0
2018-Jan-18 07:29N 45°27' E 036°39'0 0.0
2018-Jan-18 06:59N 45°27' E 036°39'0 0.0
2018-Jan-18 06:29N 45°27' E 036°39'0 0.0
2018-Jan-18 05:59N 45°27' E 036°39'0 0.0
2018-Jan-18 05:29N 45°27' E 036°39'0 0.0
2018-Jan-18 04:59N 45°27' E 036°39'0 0.0
2018-Jan-18 04:29N 45°27' E 036°39'0 0.0
2018-Jan-18 03:59N 45°27' E 036°39'0 0.0
2018-Jan-18 03:29N 45°27' E 036°39'0 0.0
2018-Jan-18 02:59N 45°27' E 036°39'0 0.0
2018-Jan-18 02:29N 45°27' E 036°39'0 0.0
2018-Jan-18 01:59N 45°27' E 036°39'0 0.0
2018-Jan-18 01:29N 45°27' E 036°39'0 0.0
2018-Jan-18 00:59N 45°27' E 036°39'0 0.0
2018-Jan-17 23:59N 45°27' E 036°39'0 0.0
2018-Jan-17 23:47N 45°27' E 036°39'  
Track history (hours):
 
Tides and Currents Weather Stations Pressure Air Temp Water Temp Dewpoint Dewpoint Depression Visibility Wind Speed Wind Dir Waves Ship Positions

Melita

Last reported at 2018-Jan-22 06:03 UTC. Time now 2018-Jan-22 12:32 UTC.
Position N 45°10' E 036°34'.

Length 110 m; draft 3.7 m.

Type: Cargo ship. MMSI: 273395390.

Date/timePositionNaut miles runAvg speedWind from/ knotsBaromVisibWave heightAir tempDewpointWater temp
2018-Jan-22 06:03N 45°10' E 036°34'0 0.0
2018-Jan-22 05:54N 45°10' E 036°34'0 0.0
2018-Jan-22 05:30N 45°10' E 036°34'0 0.0
2018-Jan-22 04:54N 45°10' E 036°34'0 0.2
2018-Jan-22 04:29N 45°10' E 036°34'1 0.5
2018-Jan-22 02:57N 45°10' E 036°33'0 0.0
2018-Jan-22 01:18N 45°10' E 036°33'0 0.0
2018-Jan-22 00:31N 45°10' E 036°33'0 0.0
2018-Jan-22 00:29N 45°10' E 036°33'0 0.0
2018-Jan-21 23:59N 45°10' E 036°33'6 0.2
2018-Jan-20 10:20N 45°14' E 036°27'2 5.9
2018-Jan-20 10:00N 45°16' E 036°28'3 5.0
2018-Jan-20 09:30N 45°18' E 036°30'3 6.0
2018-Jan-20 09:00N 45°20' E 036°34'3 5.9
2018-Jan-20 08:30N 45°21' E 036°38'3 5.8
2018-Jan-20 08:00N 45°23' E 036°40'2 4.7
2018-Jan-20 07:30N 45°25' E 036°41'2 3.3
2018-Jan-20 07:00N 45°27' E 036°40'1 1.9
2018-Jan-20 06:30N 45°27' E 036°39'0 0.0
2018-Jan-20 05:59N 45°27' E 036°39'0 0.1
2018-Jan-20 05:29N 45°27' E 036°39'0 0.0
2018-Jan-20 04:53N 45°27' E 036°39'0 0.0
2018-Jan-20 04:29N 45°27' E 036°39'0 0.0
2018-Jan-20 03:59N 45°27' E 036°39'0 0.1
2018-Jan-20 03:29N 45°27' E 036°39'0 0.0
2018-Jan-20 02:59N 45°27' E 036°39'0 0.0
2018-Jan-20 02:29N 45°27' E 036°39'0 0.0
2018-Jan-20 01:59N 45°27' E 036°39'0 0.0
2018-Jan-20 01:29N 45°27' E 036°39'0 0.1
2018-Jan-20 00:59N 45°27' E 036°39'0 0.0
2018-Jan-20 00:29N 45°27' E 036°39'0 0.1
2018-Jan-19 23:59N 45°27' E 036°39'0 0.1
2018-Jan-19 23:29N 45°27' E 036°39'0 0.0
2018-Jan-19 22:59N 45°27' E 036°39'0 0.0
2018-Jan-19 22:29N 45°27' E 036°39'0 0.0
2018-Jan-19 21:53N 45°27' E 036°39'0 0.1
2018-Jan-19 21:29N 45°27' E 036°39'0 0.0
2018-Jan-19 20:59N 45°27' E 036°39'0 0.0
2018-Jan-19 20:29N 45°27' E 036°39'0 0.0
2018-Jan-19 19:59N 45°27' E 036°39'0 0.0
2018-Jan-19 19:29N 45°27' E 036°39'0 0.0
2018-Jan-19 18:59N 45°27' E 036°39'0 0.0
2018-Jan-19 18:29N 45°27' E 036°39'0 0.0
2018-Jan-19 17:53N 45°27' E 036°39'0 0.0
2018-Jan-19 17:29N 45°27' E 036°39'0 0.0
2018-Jan-19 16:59N 45°27' E 036°39'0 0.0
2018-Jan-19 16:29N 45°27' E 036°39'0 0.0
2018-Jan-19 15:59N 45°27' E 036°39'0 0.0
2018-Jan-19 15:29N 45°27' E 036°39'0 0.0
2018-Jan-19 14:59N 45°27' E 036°39'0 0.0
2018-Jan-19 14:29N 45°27' E 036°39'0 0.0
2018-Jan-19 13:59N 45°27' E 036°39'0 0.1
2018-Jan-19 13:29N 45°27' E 036°39'0 0.0
2018-Jan-19 12:59N 45°27' E 036°39'0 0.0
2018-Jan-19 12:29N 45°27' E 036°39'0 0.0
2018-Jan-19 11:59N 45°27' E 036°39'0 0.1
2018-Jan-19 11:29N 45°27' E 036°39'0 0.0
2018-Jan-19 10:59N 45°27' E 036°39'0 0.0
2018-Jan-19 10:29N 45°27' E 036°39'0 0.0
2018-Jan-19 09:59N 45°27' E 036°39'0 0.0
2018-Jan-19 09:25N 45°27' E 036°39'0 0.0
2018-Jan-19 08:58N 45°27' E 036°39'0 0.0
2018-Jan-19 08:28N 45°27' E 036°39'0 0.0
2018-Jan-19 07:58N 45°27' E 036°39'0 0.0
2018-Jan-19 07:28N 45°27' E 036°39'0 0.0
2018-Jan-19 06:58N 45°27' E 036°39'0 0.0
2018-Jan-19 06:28N 45°27' E 036°39'0 0.0
2018-Jan-19 05:58N 45°27' E 036°39'0 0.0
2018-Jan-19 05:25N 45°27' E 036°39'0 0.0
2018-Jan-19 04:58N 45°27' E 036°39'0 0.0
2018-Jan-19 04:28N 45°27' E 036°39'0 0.0
2018-Jan-19 03:58N 45°27' E 036°39'0 0.0
2018-Jan-19 03:28N 45°27' E 036°39'0 0.0
2018-Jan-19 02:58N 45°27' E 036°39'0 0.0
2018-Jan-19 02:25N 45°27' E 036°39'0 0.0
2018-Jan-19 01:58N 45°27' E 036°39'0 0.0
2018-Jan-19 01:28N 45°27' E 036°39'0 0.0
2018-Jan-19 00:58N 45°27' E 036°39'0 0.0
2018-Jan-19 00:25N 45°27' E 036°39'0 0.0
2018-Jan-18 23:58N 45°27' E 036°39'0 0.0
2018-Jan-18 23:28N 45°27' E 036°39'0 0.0
2018-Jan-18 22:58N 45°27' E 036°39'0 0.0
2018-Jan-18 22:28N 45°27' E 036°39'0 0.0
2018-Jan-18 21:58N 45°27' E 036°39'0 0.0
2018-Jan-18 21:28N 45°27' E 036°39'0 0.0
2018-Jan-18 20:58N 45°27' E 036°39'0 0.0
2018-Jan-18 20:28N 45°27' E 036°39'0 0.0
2018-Jan-18 19:52N 45°27' E 036°39'0 0.0
2018-Jan-18 19:28N 45°27' E 036°39'0 0.0
2018-Jan-18 18:58N 45°27' E 036°39'0 0.0
2018-Jan-18 18:28N 45°27' E 036°39'0 0.0
2018-Jan-18 17:52N 45°27' E 036°39'0 0.0
2018-Jan-18 17:25N 45°27' E 036°39'0 0.0
2018-Jan-18 16:58N 45°27' E 036°39'0 0.0
2018-Jan-18 16:28N 45°27' E 036°39'0 0.0
2018-Jan-18 15:58N 45°27' E 036°39'0 0.0
2018-Jan-18 15:28N 45°27' E 036°39'0 0.0
2018-Jan-18 14:55N 45°27' E 036°39'0 0.0
2018-Jan-18 14:25N 45°27' E 036°39'0 0.0
2018-Jan-18 13:58N 45°27' E 036°39'0 0.0
2018-Jan-18 13:30N 45°27' E 036°39'0 0.0
2018-Jan-18 12:59N 45°27' E 036°39'0 0.0
2018-Jan-18 12:29N 45°27' E 036°39'0 0.0
2018-Jan-18 11:59N 45°27' E 036°39'0 0.0
2018-Jan-18 11:29N 45°27' E 036°39'0 0.0
2018-Jan-18 11:00N 45°27' E 036°39'0 0.0
2018-Jan-18 10:29N 45°27' E 036°39'0 0.0
2018-Jan-18 09:59N 45°27' E 036°39'0 0.0
2018-Jan-18 09:29N 45°27' E 036°39'0 0.0
2018-Jan-18 08:59N 45°27' E 036°39'0 0.0
2018-Jan-18 08:29N 45°27' E 036°39'0 0.0
2018-Jan-18 07:59N 45°27' E 036°39'0 0.0
2018-Jan-18 07:29N 45°27' E 036°39'0 0.0
2018-Jan-18 06:59N 45°27' E 036°39'0 0.0
2018-Jan-18 06:29N 45°27' E 036°39'0 0.0
2018-Jan-18 05:59N 45°27' E 036°39'0 0.0
2018-Jan-18 05:29N 45°27' E 036°39'0 0.0
2018-Jan-18 04:59N 45°27' E 036°39'0 0.0
2018-Jan-18 04:29N 45°27' E 036°39'0 0.0
2018-Jan-18 03:59N 45°27' E 036°39'0 0.0
2018-Jan-18 03:29N 45°27' E 036°39'0 0.0
2018-Jan-18 02:59N 45°27' E 036°39'0 0.0
2018-Jan-18 02:29N 45°27' E 036°39'0 0.0
2018-Jan-18 01:59N 45°27' E 036°39'0 0.0
2018-Jan-18 01:29N 45°27' E 036°39'0 0.0
2018-Jan-18 00:59N 45°27' E 036°39'0 0.0
2018-Jan-17 23:59N 45°27' E 036°39'0 0.0
2018-Jan-17 23:47N 45°27' E 036°39'  

Dump ship's entire track history